sensor_id;sensor_type;location;lat;lon;timestamp;P1;durP1;ratioP1;P2;durP2;ratioP2
2107;SDS011;1060;52.492;13.388;2023-12-14T01:07:12;29.88;;;19.95;;
2107;SDS011;1060;52.492;13.388;2023-12-14T01:13:43;46.00;;;22.15;;
2107;SDS011;1060;52.492;13.388;2023-12-14T01:16:09;34.13;;;21.00;;
2107;SDS011;1060;52.492;13.388;2023-12-14T01:18:36;35.85;;;23.95;;
2107;SDS011;1060;52.492;13.388;2023-12-14T01:21:03;34.70;;;21.35;;
2107;SDS011;1060;52.492;13.388;2023-12-14T01:23:31;33.38;;;21.90;;
2107;SDS011;1060;52.492;13.388;2023-12-14T01:26:00;30.38;;;21.92;;
2107;SDS011;1060;52.492;13.388;2023-12-14T01:28:27;29.10;;;21.47;;
2107;SDS011;1060;52.492;13.388;2023-12-14T01:30:54;30.40;;;20.65;;
2107;SDS011;1060;52.492;13.388;2023-12-14T01:33:25;30.67;;;22.35;;
2107;SDS011;1060;52.492;13.388;2023-12-14T01:35:55;29.92;;;22.15;;
2107;SDS011;1060;52.492;13.388;2023-12-14T01:38:22;30.15;;;21.77;;
2107;SDS011;1060;52.492;13.388;2023-12-14T01:40:48;32.40;;;20.80;;
2107;SDS011;1060;52.492;13.388;2023-12-14T01:43:15;32.72;;;19.48;;
2107;SDS011;1060;52.492;13.388;2023-12-14T03:29:41;29.70;;;20.15;;
2107;SDS011;1060;52.492;13.388;2023-12-14T03:32:07;26.35;;;18.60;;
2107;SDS011;1060;52.492;13.388;2023-12-14T03:34:33;26.65;;;19.65;;
2107;SDS011;1060;52.492;13.388;2023-12-14T03:36:59;30.50;;;18.33;;
2107;SDS011;1060;52.492;13.388;2023-12-14T03:39:25;29.80;;;20.55;;
2107;SDS011;1060;52.492;13.388;2023-12-14T03:41:52;26.52;;;16.50;;
2107;SDS011;1060;52.492;13.388;2023-12-14T03:44:21;27.90;;;19.25;;
2107;SDS011;1060;52.492;13.388;2023-12-14T03:46:49;32.30;;;18.88;;
2107;SDS011;1060;52.492;13.388;2023-12-14T03:49:15;26.80;;;19.02;;
2107;SDS011;1060;52.492;13.388;2023-12-14T03:51:44;33.92;;;19.67;;
2107;SDS011;1060;52.492;13.388;2023-12-14T03:54:10;32.13;;;19.80;;
2107;SDS011;1060;52.492;13.388;2023-12-14T03:56:39;26.98;;;17.35;;
2107;SDS011;1060;52.492;13.388;2023-12-14T03:59:06;23.88;;;17.73;;
2107;SDS011;1060;52.492;13.388;2023-12-14T04:01:32;30.17;;;19.33;;
2107;SDS011;1060;52.492;13.388;2023-12-14T04:03:58;29.17;;;18.85;;
2107;SDS011;1060;52.492;13.388;2023-12-14T04:06:27;31.80;;;19.85;;
2107;SDS011;1060;52.492;13.388;2023-12-14T04:08:54;34.40;;;19.15;;
2107;SDS011;1060;52.492;13.388;2023-12-14T04:11:34;30.23;;;18.63;;
2107;SDS011;1060;52.492;13.388;2023-12-14T04:14:15;23.10;;;15.15;;
2107;SDS011;1060;52.492;13.388;2023-12-14T04:16:41;28.25;;;15.38;;
2107;SDS011;1060;52.492;13.388;2023-12-14T04:19:08;27.92;;;16.65;;
2107;SDS011;1060;52.492;13.388;2023-12-14T04:21:35;23.08;;;15.38;;
2107;SDS011;1060;52.492;13.388;2023-12-14T04:24:02;28.20;;;16.17;;
2107;SDS011;1060;52.492;13.388;2023-12-14T04:26:28;18.63;;;15.32;;
2107;SDS011;1060;52.492;13.388;2023-12-14T04:28:54;24.13;;;17.23;;
2107;SDS011;1060;52.492;13.388;2023-12-14T04:31:20;29.30;;;16.63;;
2107;SDS011;1060;52.492;13.388;2023-12-14T04:33:46;27.77;;;14.48;;
2107;SDS011;1060;52.492;13.388;2023-12-14T04:36:13;25.05;;;17.77;;
2107;SDS011;1060;52.492;13.388;2023-12-14T04:38:39;25.95;;;16.52;;
2107;SDS011;1060;52.492;13.388;2023-12-14T04:41:05;25.40;;;17.38;;
2107;SDS011;1060;52.492;13.388;2023-12-14T04:43:31;33.88;;;16.58;;
2107;SDS011;1060;52.492;13.388;2023-12-14T04:45:57;22.20;;;16.08;;
2107;SDS011;1060;52.492;13.388;2023-12-14T04:48:24;25.60;;;16.77;;
2107;SDS011;1060;52.492;13.388;2023-12-14T04:50:50;25.35;;;17.20;;
2107;SDS011;1060;52.492;13.388;2023-12-14T04:53:16;23.33;;;15.93;;
2107;SDS011;1060;52.492;13.388;2023-12-14T04:55:42;21.85;;;16.65;;
2107;SDS011;1060;52.492;13.388;2023-12-14T04:58:08;24.10;;;17.30;;
2107;SDS011;1060;52.492;13.388;2023-12-14T05:00:34;19.38;;;14.40;;
2107;SDS011;1060;52.492;13.388;2023-12-14T05:03:01;19.50;;;14.48;;
2107;SDS011;1060;52.492;13.388;2023-12-14T05:05:27;28.52;;;15.50;;
2107;SDS011;1060;52.492;13.388;2023-12-14T05:07:53;27.80;;;18.05;;
2107;SDS011;1060;52.492;13.388;2023-12-14T05:10:20;23.92;;;17.00;;
2107;SDS011;1060;52.492;13.388;2023-12-14T05:12:46;30.45;;;15.88;;
2107;SDS011;1060;52.492;13.388;2023-12-14T05:15:12;27.98;;;19.13;;
2107;SDS011;1060;52.492;13.388;2023-12-14T05:17:38;29.60;;;18.50;;
2107;SDS011;1060;52.492;13.388;2023-12-14T05:20:08;26.00;;;16.65;;
2107;SDS011;1060;52.492;13.388;2023-12-14T05:22:34;32.40;;;17.63;;
2107;SDS011;1060;52.492;13.388;2023-12-14T05:25:01;22.67;;;15.93;;
2107;SDS011;1060;52.492;13.388;2023-12-14T05:27:27;17.75;;;14.45;;
2107;SDS011;1060;52.492;13.388;2023-12-14T05:29:55;30.13;;;16.67;;
2107;SDS011;1060;52.492;13.388;2023-12-14T05:32:22;23.02;;;15.68;;
2107;SDS011;1060;52.492;13.388;2023-12-14T05:34:48;23.48;;;16.30;;
2107;SDS011;1060;52.492;13.388;2023-12-14T05:37:14;24.80;;;15.98;;
2107;SDS011;1060;52.492;13.388;2023-12-14T05:39:41;26.05;;;17.60;;
2107;SDS011;1060;52.492;13.388;2023-12-14T05:42:08;20.27;;;16.60;;
2107;SDS011;1060;52.492;13.388;2023-12-14T05:44:34;18.17;;;16.23;;
2107;SDS011;1060;52.492;13.388;2023-12-14T05:47:01;19.58;;;17.52;;
2107;SDS011;1060;52.492;13.388;2023-12-14T05:49:30;23.08;;;17.20;;
2107;SDS011;1060;52.492;13.388;2023-12-14T05:51:58;17.42;;;14.40;;
2107;SDS011;1060;52.492;13.388;2023-12-14T05:54:24;21.83;;;17.42;;
2107;SDS011;1060;52.492;13.388;2023-12-14T05:56:50;28.75;;;17.98;;
2107;SDS011;1060;52.492;13.388;2023-12-14T05:59:17;24.80;;;15.45;;
2107;SDS011;1060;52.492;13.388;2023-12-14T06:01:43;18.77;;;14.80;;
2107;SDS011;1060;52.492;13.388;2023-12-14T06:04:09;19.38;;;16.90;;
2107;SDS011;1060;52.492;13.388;2023-12-14T06:06:37;24.45;;;18.40;;
2107;SDS011;1060;52.492;13.388;2023-12-14T06:09:07;18.88;;;13.95;;
2107;SDS011;1060;52.492;13.388;2023-12-14T06:11:33;20.10;;;13.52;;
2107;SDS011;1060;52.492;13.388;2023-12-14T06:14:26;17.85;;;15.90;;
2107;SDS011;1060;52.492;13.388;2023-12-14T06:16:52;19.30;;;15.80;;
2107;SDS011;1060;52.492;13.388;2023-12-14T06:19:19;20.33;;;16.85;;
2107;SDS011;1060;52.492;13.388;2023-12-14T06:21:45;20.17;;;16.08;;
2107;SDS011;1060;52.492;13.388;2023-12-14T06:24:14;28.10;;;16.20;;
2107;SDS011;1060;52.492;13.388;2023-12-14T06:26:44;24.70;;;17.83;;
2107;SDS011;1060;52.492;13.388;2023-12-14T06:29:11;18.77;;;13.95;;
2107;SDS011;1060;52.492;13.388;2023-12-14T06:31:38;17.73;;;15.80;;
2107;SDS011;1060;52.492;13.388;2023-12-14T06:34:05;16.98;;;14.38;;
2107;SDS011;1060;52.492;13.388;2023-12-14T06:36:31;21.27;;;14.55;;
2107;SDS011;1060;52.492;13.388;2023-12-14T06:38:58;19.13;;;14.38;;
2107;SDS011;1060;52.492;13.388;2023-12-14T06:41:24;19.83;;;14.23;;
2107;SDS011;1060;52.492;13.388;2023-12-14T06:43:53;22.23;;;14.15;;
2107;SDS011;1060;52.492;13.388;2023-12-14T06:46:19;22.85;;;15.48;;
2107;SDS011;1060;52.492;13.388;2023-12-14T06:48:49;19.60;;;14.65;;
2107;SDS011;1060;52.492;13.388;2023-12-14T06:51:15;19.83;;;15.05;;
2107;SDS011;1060;52.492;13.388;2023-12-14T06:53:42;19.42;;;14.95;;
2107;SDS011;1060;52.492;13.388;2023-12-14T06:56:08;19.30;;;14.85;;
2107;SDS011;1060;52.492;13.388;2023-12-14T06:58:43;18.55;;;15.95;;
2107;SDS011;1060;52.492;13.388;2023-12-14T07:01:13;25.48;;;17.05;;
2107;SDS011;1060;52.492;13.388;2023-12-14T07:03:43;17.90;;;15.15;;
2107;SDS011;1060;52.492;13.388;2023-12-14T07:06:16;19.83;;;14.05;;
2107;SDS011;1060;52.492;13.388;2023-12-14T07:08:43;24.23;;;16.63;;
2107;SDS011;1060;52.492;13.388;2023-12-14T07:11:15;18.63;;;16.13;;
2107;SDS011;1060;52.492;13.388;2023-12-14T07:13:42;22.83;;;16.02;;
2107;SDS011;1060;52.492;13.388;2023-12-14T07:16:09;18.67;;;13.32;;
2107;SDS011;1060;52.492;13.388;2023-12-14T07:18:45;19.35;;;14.02;;
2107;SDS011;1060;52.492;13.388;2023-12-14T07:21:12;22.27;;;16.60;;
2107;SDS011;1060;52.492;13.388;2023-12-14T07:23:41;21.65;;;16.88;;
2107;SDS011;1060;52.492;13.388;2023-12-14T07:26:15;20.58;;;15.07;;
2107;SDS011;1060;52.492;13.388;2023-12-14T07:28:42;18.17;;;14.20;;
2107;SDS011;1060;52.492;13.388;2023-12-14T07:31:08;17.42;;;15.50;;
2107;SDS011;1060;52.492;13.388;2023-12-14T07:33:37;19.13;;;16.17;;
2107;SDS011;1060;52.492;13.388;2023-12-14T07:36:04;18.85;;;14.68;;
2107;SDS011;1060;52.492;13.388;2023-12-14T07:38:33;19.52;;;14.70;;
2107;SDS011;1060;52.492;13.388;2023-12-14T07:40:59;19.92;;;15.07;;
2107;SDS011;1060;52.492;13.388;2023-12-14T07:43:26;20.48;;;15.45;;
2107;SDS011;1060;52.492;13.388;2023-12-14T07:45:52;25.25;;;18.08;;
2107;SDS011;1060;52.492;13.388;2023-12-14T07:48:18;23.20;;;18.00;;
2107;SDS011;1060;52.492;13.388;2023-12-14T07:50:45;20.25;;;15.60;;
2107;SDS011;1060;52.492;13.388;2023-12-14T07:53:11;22.98;;;20.42;;
2107;SDS011;1060;52.492;13.388;2023-12-14T07:55:38;24.98;;;18.05;;
2107;SDS011;1060;52.492;13.388;2023-12-14T07:58:04;26.70;;;18.63;;
2107;SDS011;1060;52.492;13.388;2023-12-14T08:00:33;29.52;;;18.73;;
2107;SDS011;1060;52.492;13.388;2023-12-14T08:03:00;26.67;;;19.35;;
2107;SDS011;1060;52.492;13.388;2023-12-14T08:05:26;25.83;;;19.95;;
2107;SDS011;1060;52.492;13.388;2023-12-14T08:07:56;24.58;;;17.88;;
2107;SDS011;1060;52.492;13.388;2023-12-14T08:10:38;25.17;;;18.92;;
2107;SDS011;1060;52.492;13.388;2023-12-14T08:13:10;24.35;;;21.35;;
2107;SDS011;1060;52.492;13.388;2023-12-14T08:15:36;22.00;;;18.45;;
2107;SDS011;1060;52.492;13.388;2023-12-14T08:18:27;22.23;;;17.98;;
2107;SDS011;1060;52.492;13.388;2023-12-14T08:21:00;28.73;;;21.58;;
2107;SDS011;1060;52.492;13.388;2023-12-14T08:23:27;24.80;;;20.15;;
2107;SDS011;1060;52.492;13.388;2023-12-14T08:25:59;22.98;;;18.42;;
2107;SDS011;1060;52.492;13.388;2023-12-14T08:28:33;29.55;;;22.30;;
2107;SDS011;1060;52.492;13.388;2023-12-14T08:31:07;22.95;;;19.02;;
2107;SDS011;1060;52.492;13.388;2023-12-14T08:33:41;25.33;;;19.63;;
2107;SDS011;1060;52.492;13.388;2023-12-14T08:36:26;24.35;;;18.70;;
2107;SDS011;1060;52.492;13.388;2023-12-14T08:39:20;23.02;;;17.40;;
2107;SDS011;1060;52.492;13.388;2023-12-14T08:42:39;23.05;;;20.10;;
2107;SDS011;1060;52.492;13.388;2023-12-14T08:50:32;24.55;;;19.48;;
2107;SDS011;1060;52.492;13.388;2023-12-14T08:59:17;22.00;;;18.80;;
2107;SDS011;1060;52.492;13.388;2023-12-14T09:13:00;25.23;;;17.17;;
2107;SDS011;1060;52.492;13.388;2023-12-14T09:15:30;23.87;;;19.97;;
2107;SDS011;1060;52.492;13.388;2023-12-14T09:20:50;20.70;;;17.88;;
2107;SDS011;1060;52.492;13.388;2023-12-14T09:23:26;20.48;;;18.25;;
2107;SDS011;1060;52.492;13.388;2023-12-14T09:26:14;20.60;;;15.47;;
2107;SDS011;1060;52.492;13.388;2023-12-14T09:28:41;21.80;;;17.95;;
2107;SDS011;1060;52.492;13.388;2023-12-14T09:31:07;21.60;;;17.67;;
2107;SDS011;1060;52.492;13.388;2023-12-14T09:33:37;22.70;;;19.80;;
2107;SDS011;1060;52.492;13.388;2023-12-14T09:36:07;21.67;;;18.40;;
2107;SDS011;1060;52.492;13.388;2023-12-14T09:38:34;19.43;;;15.17;;
2107;SDS011;1060;52.492;13.388;2023-12-14T09:41:01;21.88;;;19.15;;
2107;SDS011;1060;52.492;13.388;2023-12-14T09:43:28;23.13;;;19.08;;
2107;SDS011;1060;52.492;13.388;2023-12-14T09:45:55;23.03;;;17.37;;
2107;SDS011;1060;52.492;13.388;2023-12-14T09:48:21;23.30;;;19.08;;
2107;SDS011;1060;52.492;13.388;2023-12-14T09:50:51;19.77;;;17.60;;
2107;SDS011;1060;52.492;13.388;2023-12-14T09:53:21;18.90;;;16.87;;
2107;SDS011;1060;52.492;13.388;2023-12-14T09:55:50;18.38;;;16.08;;
2107;SDS011;1060;52.492;13.388;2023-12-14T09:58:22;19.02;;;16.27;;
2107;SDS011;1060;52.492;13.388;2023-12-14T10:00:49;23.03;;;17.73;;
2107;SDS011;1060;52.492;13.388;2023-12-14T10:03:39;21.27;;;16.65;;
2107;SDS011;1060;52.492;13.388;2023-12-14T10:06:05;25.00;;;18.83;;
2107;SDS011;1060;52.492;13.388;2023-12-14T10:08:35;17.90;;;15.57;;
2107;SDS011;1060;52.492;13.388;2023-12-14T10:11:05;16.13;;;13.87;;
2107;SDS011;1060;52.492;13.388;2023-12-14T10:13:43;19.47;;;16.27;;
2107;SDS011;1060;52.492;13.388;2023-12-14T10:16:09;14.70;;;13.10;;
2107;SDS011;1060;52.492;13.388;2023-12-14T10:18:39;19.50;;;14.55;;
2107;SDS011;1060;52.492;13.388;2023-12-14T10:21:06;16.48;;;14.40;;
2107;SDS011;1060;52.492;13.388;2023-12-14T10:23:33;17.37;;;15.57;;
2107;SDS011;1060;52.492;13.388;2023-12-14T10:26:00;12.82;;;11.63;;
2107;SDS011;1060;52.492;13.388;2023-12-14T10:28:32;15.93;;;13.73;;
2107;SDS011;1060;52.492;13.388;2023-12-14T10:31:03;15.65;;;14.20;;
2107;SDS011;1060;52.492;13.388;2023-12-14T10:33:35;15.20;;;13.60;;
2107;SDS011;1060;52.492;13.388;2023-12-14T10:36:04;16.07;;;14.47;;
2107;SDS011;1060;52.492;13.388;2023-12-14T10:38:37;13.10;;;11.70;;
2107;SDS011;1060;52.492;13.388;2023-12-14T10:41:04;15.23;;;13.63;;
2107;SDS011;1060;52.492;13.388;2023-12-14T10:43:31;12.63;;;10.73;;
2107;SDS011;1060;52.492;13.388;2023-12-14T10:46:01;16.30;;;14.33;;
2107;SDS011;1060;52.492;13.388;2023-12-14T10:48:30;16.00;;;13.70;;
2107;SDS011;1060;52.492;13.388;2023-12-14T10:51:01;13.85;;;12.45;;
2107;SDS011;1060;52.492;13.388;2023-12-14T10:53:39;14.27;;;11.40;;
2107;SDS011;1060;52.492;13.388;2023-12-14T10:56:18;15.27;;;13.63;;
2107;SDS011;1060;52.492;13.388;2023-12-14T10:58:51;17.30;;;14.87;;
2107;SDS011;1060;52.492;13.388;2023-12-14T11:01:30;19.60;;;13.23;;
2107;SDS011;1060;52.492;13.388;2023-12-14T11:04:10;18.10;;;15.13;;
2107;SDS011;1060;52.492;13.388;2023-12-14T11:09:25;19.90;;;14.97;;
2107;SDS011;1060;52.492;13.388;2023-12-14T11:12:18;17.40;;;15.17;;
2107;SDS011;1060;52.492;13.388;2023-12-14T11:14:48;15.43;;;13.10;;
2107;SDS011;1060;52.492;13.388;2023-12-14T11:17:24;16.90;;;13.40;;
2107;SDS011;1060;52.492;13.388;2023-12-14T11:23:10;16.87;;;14.40;;
2107;SDS011;1060;52.492;13.388;2023-12-14T11:25:48;17.73;;;14.07;;
2107;SDS011;1060;52.492;13.388;2023-12-14T11:28:17;20.13;;;15.23;;
2107;SDS011;1060;52.492;13.388;2023-12-14T11:31:07;17.30;;;12.90;;
2107;SDS011;1060;52.492;13.388;2023-12-14T11:33:46;16.67;;;15.07;;
2107;SDS011;1060;52.492;13.388;2023-12-14T11:36:25;17.83;;;14.50;;
2107;SDS011;1060;52.492;13.388;2023-12-14T11:38:57;15.33;;;12.60;;
2107;SDS011;1060;52.492;13.388;2023-12-14T11:41:24;18.30;;;13.93;;
2107;SDS011;1060;52.492;13.388;2023-12-14T11:43:59;15.67;;;13.57;;
2107;SDS011;1060;52.492;13.388;2023-12-14T11:49:37;18.63;;;13.20;;
2107;SDS011;1060;52.492;13.388;2023-12-14T11:52:08;16.00;;;14.30;;
2107;SDS011;1060;52.492;13.388;2023-12-14T11:54:40;16.93;;;14.60;;
2107;SDS011;1060;52.492;13.388;2023-12-14T11:57:06;25.10;;;16.33;;
2107;SDS011;1060;52.492;13.388;2023-12-14T11:59:36;15.70;;;14.00;;
2107;SDS011;1060;52.492;13.388;2023-12-14T12:02:06;17.23;;;14.20;;
2107;SDS011;1060;52.492;13.388;2023-12-14T12:04:38;20.00;;;13.30;;
2107;SDS011;1060;52.492;13.388;2023-12-14T12:07:20;13.07;;;11.73;;
2107;SDS011;1060;52.492;13.388;2023-12-14T12:09:49;14.03;;;12.27;;
2107;SDS011;1060;52.492;13.388;2023-12-14T12:12:24;14.20;;;12.57;;
2107;SDS011;1060;52.492;13.388;2023-12-14T12:14:53;13.70;;;12.30;;
2107;SDS011;1060;52.492;13.388;2023-12-14T12:17:20;12.90;;;11.60;;
2107;SDS011;1060;52.492;13.388;2023-12-14T12:20:28;14.35;;;12.85;;
2107;SDS011;1060;52.492;13.388;2023-12-14T12:22:56;14.80;;;13.30;;
2107;SDS011;1060;52.492;13.388;2023-12-14T12:25:22;16.43;;;14.90;;
2107;SDS011;1060;52.492;13.388;2023-12-14T12:27:49;16.07;;;14.37;;
2107;SDS011;1060;52.492;13.388;2023-12-14T12:30:21;13.23;;;11.75;;
2107;SDS011;1060;52.492;13.388;2023-12-14T12:32:48;15.97;;;13.03;;
2107;SDS011;1060;52.492;13.388;2023-12-14T12:35:19;16.15;;;14.52;;
2107;SDS011;1060;52.492;13.388;2023-12-14T12:37:58;14.33;;;12.90;;
2107;SDS011;1060;52.492;13.388;2023-12-14T12:40:45;15.50;;;12.73;;
2107;SDS011;1060;52.492;13.388;2023-12-14T12:43:12;17.00;;;13.70;;
2107;SDS011;1060;52.492;13.388;2023-12-14T12:45:39;16.33;;;14.13;;
2107;SDS011;1060;52.492;13.388;2023-12-14T12:48:08;17.23;;;13.98;;
2107;SDS011;1060;52.492;13.388;2023-12-14T12:50:57;16.67;;;14.00;;
2107;SDS011;1060;52.492;13.388;2023-12-14T12:53:44;21.60;;;15.57;;
2107;SDS011;1060;52.492;13.388;2023-12-14T12:56:16;13.90;;;12.50;;
2107;SDS011;1060;52.492;13.388;2023-12-14T13:05:06;12.17;;;10.97;;
2107;SDS011;1060;52.492;13.388;2023-12-14T13:07:53;12.33;;;11.03;;
2107;SDS011;1060;52.492;13.388;2023-12-14T13:17:17;14.90;;;12.40;;
2107;SDS011;1060;52.492;13.388;2023-12-14T13:19:53;14.02;;;12.63;;
2107;SDS011;1060;52.492;13.388;2023-12-14T13:22:40;16.00;;;12.00;;
2107;SDS011;1060;52.492;13.388;2023-12-14T13:25:31;15.93;;;14.33;;
2107;SDS011;1060;52.492;13.388;2023-12-14T13:28:23;14.50;;;12.95;;
2107;SDS011;1060;52.492;13.388;2023-12-14T13:44:30;19.30;;;15.67;;
2107;SDS011;1060;52.492;13.388;2023-12-14T13:52:25;17.60;;;15.73;;
2107;SDS011;1060;52.492;13.388;2023-12-14T14:36:41;15.25;;;13.65;;
2107;SDS011;1060;52.492;13.388;2023-12-14T15:06:42;19.15;;;15.80;;
2107;SDS011;1060;52.492;13.388;2023-12-14T15:20:47;21.25;;;14.73;;
2107;SDS011;1060;52.492;13.388;2023-12-14T15:23:25;17.05;;;12.32;;
2107;SDS011;1060;52.492;13.388;2023-12-14T15:26:39;18.95;;;16.52;;
2107;SDS011;1060;52.492;13.388;2023-12-14T15:34:51;15.30;;;13.20;;
2107;SDS011;1060;52.492;13.388;2023-12-14T15:38:13;16.83;;;15.20;;
2107;SDS011;1060;52.492;13.388;2023-12-14T15:41:06;16.10;;;13.10;;
2107;SDS011;1060;52.492;13.388;2023-12-14T15:47:24;15.57;;;13.10;;
2107;SDS011;1060;52.492;13.388;2023-12-14T15:50:04;16.40;;;12.10;;
2107;SDS011;1060;52.492;13.388;2023-12-14T16:04:59;13.63;;;12.25;;
2107;SDS011;1060;52.492;13.388;2023-12-14T16:13:48;14.45;;;12.65;;
2107;SDS011;1060;52.492;13.388;2023-12-14T16:16:36;14.90;;;12.60;;
2107;SDS011;1060;52.492;13.388;2023-12-14T16:19:10;16.52;;;12.30;;
2107;SDS011;1060;52.492;13.388;2023-12-14T16:21:42;14.90;;;11.48;;
2107;SDS011;1060;52.492;13.388;2023-12-14T16:29:32;11.95;;;10.65;;
2107;SDS011;1060;52.492;13.388;2023-12-14T16:32:04;16.83;;;13.80;;
2107;SDS011;1060;52.492;13.388;2023-12-14T16:37:30;19.07;;;15.07;;
2107;SDS011;1060;52.492;13.388;2023-12-14T16:40:00;16.75;;;12.80;;
2107;SDS011;1060;52.492;13.388;2023-12-14T16:42:27;14.13;;;12.05;;
2107;SDS011;1060;52.492;13.388;2023-12-14T16:45:16;15.68;;;10.80;;
2107;SDS011;1060;52.492;13.388;2023-12-14T16:50:27;18.80;;;13.63;;
2107;SDS011;1060;52.492;13.388;2023-12-14T16:53:21;14.80;;;11.02;;
2107;SDS011;1060;52.492;13.388;2023-12-14T16:55:49;15.48;;;11.73;;
2107;SDS011;1060;52.492;13.388;2023-12-14T16:59:05;17.45;;;13.05;;
2107;SDS011;1060;52.492;13.388;2023-12-14T17:06:58;13.23;;;11.30;;
2107;SDS011;1060;52.492;13.388;2023-12-14T17:09:39;15.83;;;13.47;;
2107;SDS011;1060;52.492;13.388;2023-12-14T17:12:32;15.75;;;11.98;;
2107;SDS011;1060;52.492;13.388;2023-12-14T17:15:13;16.83;;;13.35;;
2107;SDS011;1060;52.492;13.388;2023-12-14T17:23:44;14.85;;;10.85;;
2107;SDS011;1060;52.492;13.388;2023-12-14T17:26:16;14.48;;;11.13;;
2107;SDS011;1060;52.492;13.388;2023-12-14T18:50:29;13.00;;;10.27;;
2107;SDS011;1060;52.492;13.388;2023-12-14T18:53:01;12.23;;;10.60;;
2107;SDS011;1060;52.492;13.388;2023-12-14T19:09:53;14.98;;;11.15;;
2107;SDS011;1060;52.492;13.388;2023-12-14T19:12:30;12.32;;;10.68;;
2107;SDS011;1060;52.492;13.388;2023-12-14T19:17:52;13.20;;;11.80;;
2107;SDS011;1060;52.492;13.388;2023-12-14T19:20:22;13.15;;;10.30;;
2107;SDS011;1060;52.492;13.388;2023-12-14T20:25:01;17.67;;;12.47;;
2107;SDS011;1060;52.492;13.388;2023-12-14T20:27:36;15.65;;;12.20;;
2107;SDS011;1060;52.492;13.388;2023-12-14T20:30:24;16.08;;;11.23;;
2107;SDS011;1060;52.492;13.388;2023-12-14T20:33:03;13.90;;;12.07;;
2107;SDS011;1060;52.492;13.388;2023-12-14T20:35:31;13.45;;;12.05;;
2107;SDS011;1060;52.492;13.388;2023-12-14T20:38:56;14.65;;;11.82;;
2107;SDS011;1060;52.492;13.388;2023-12-14T20:45:32;12.80;;;10.63;;
2107;SDS011;1060;52.492;13.388;2023-12-14T20:48:19;14.32;;;10.38;;
2107;SDS011;1060;52.492;13.388;2023-12-14T20:54:15;12.57;;;11.25;;
2107;SDS011;1060;52.492;13.388;2023-12-14T20:57:16;11.80;;;10.00;;
2107;SDS011;1060;52.492;13.388;2023-12-14T21:00:06;11.90;;;10.70;;
2107;SDS011;1060;52.492;13.388;2023-12-14T21:02:44;15.25;;;13.75;;
2107;SDS011;1060;52.492;13.388;2023-12-14T21:05:17;13.70;;;11.60;;
2107;SDS011;1060;52.492;13.388;2023-12-14T21:08:17;11.35;;;10.15;;
2107;SDS011;1060;52.492;13.388;2023-12-14T21:10:46;11.90;;;10.10;;
2107;SDS011;1060;52.492;13.388;2023-12-14T22:15:39;14.40;;;13.00;;
2107;SDS011;1060;52.492;13.388;2023-12-14T22:18:07;17.23;;;11.17;;
2107;SDS011;1060;52.492;13.388;2023-12-14T22:20:37;15.00;;;11.87;;
2107;SDS011;1060;52.492;13.388;2023-12-14T22:23:06;14.38;;;10.93;;
2107;SDS011;1060;52.492;13.388;2023-12-14T22:25:41;16.30;;;11.52;;
2107;SDS011;1060;52.492;13.388;2023-12-14T22:28:11;16.55;;;12.32;;
2107;SDS011;1060;52.492;13.388;2023-12-14T22:30:38;17.48;;;12.80;;
2107;SDS011;1060;52.492;13.388;2023-12-14T22:33:08;15.90;;;11.05;;
2107;SDS011;1060;52.492;13.388;2023-12-14T22:35:34;13.60;;;12.30;;
2107;SDS011;1060;52.492;13.388;2023-12-14T22:38:04;15.52;;;13.20;;
2107;SDS011;1060;52.492;13.388;2023-12-14T22:40:43;13.05;;;11.60;;
2107;SDS011;1060;52.492;13.388;2023-12-14T22:43:21;17.77;;;12.03;;
2107;SDS011;1060;52.492;13.388;2023-12-14T22:45:48;15.50;;;13.60;;
2107;SDS011;1060;52.492;13.388;2023-12-14T22:48:17;14.40;;;12.25;;
2107;SDS011;1060;52.492;13.388;2023-12-14T22:50:46;15.90;;;14.18;;
2107;SDS011;1060;52.492;13.388;2023-12-14T22:53:18;11.27;;;10.27;;
2107;SDS011;1060;52.492;13.388;2023-12-14T22:56:03;21.42;;;13.68;;
2107;SDS011;1060;52.492;13.388;2023-12-14T22:58:42;23.07;;;14.13;;
2107;SDS011;1060;52.492;13.388;2023-12-14T23:01:30;16.80;;;14.03;;
2107;SDS011;1060;52.492;13.388;2023-12-14T23:04:15;17.13;;;13.35;;
2107;SDS011;1060;52.492;13.388;2023-12-14T23:07:11;15.37;;;13.80;;
2107;SDS011;1060;52.492;13.388;2023-12-14T23:09:40;18.17;;;13.15;;
2107;SDS011;1060;52.492;13.388;2023-12-14T23:12:09;17.27;;;14.85;;
2107;SDS011;1060;52.492;13.388;2023-12-14T23:15:05;14.50;;;13.10;;
2107;SDS011;1060;52.492;13.388;2023-12-14T23:18:00;14.63;;;12.27;;
2107;SDS011;1060;52.492;13.388;2023-12-14T23:20:46;18.47;;;13.60;;
2107;SDS011;1060;52.492;13.388;2023-12-14T23:23:28;19.02;;;14.68;;
2107;SDS011;1060;52.492;13.388;2023-12-14T23:25:57;13.93;;;12.48;;
2107;SDS011;1060;52.492;13.388;2023-12-14T23:28:23;18.95;;;16.15;;
2107;SDS011;1060;52.492;13.388;2023-12-14T23:30:56;21.63;;;15.80;;
2107;SDS011;1060;52.492;13.388;2023-12-14T23:33:22;19.50;;;13.40;;
2107;SDS011;1060;52.492;13.388;2023-12-14T23:35:49;19.03;;;16.93;;
2107;SDS011;1060;52.492;13.388;2023-12-14T23:38:15;17.10;;;13.47;;
2107;SDS011;1060;52.492;13.388;2023-12-14T23:40:43;16.45;;;14.07;;
2107;SDS011;1060;52.492;13.388;2023-12-14T23:43:09;14.83;;;13.27;;
2107;SDS011;1060;52.492;13.388;2023-12-14T23:45:36;17.23;;;12.57;;
2107;SDS011;1060;52.492;13.388;2023-12-14T23:48:08;16.30;;;11.33;;
2107;SDS011;1060;52.492;13.388;2023-12-14T23:50:59;13.23;;;11.10;;
2107;SDS011;1060;52.492;13.388;2023-12-14T23:53:26;18.17;;;14.32;;
2107;SDS011;1060;52.492;13.388;2023-12-14T23:56:03;14.97;;;13.03;;
2107;SDS011;1060;52.492;13.388;2023-12-14T23:58:32;13.40;;;12.07;;
